logo
Search for airport 
image banner adimage banner adimage banner ad
image banner ad

ESFINS - Finspang

Located in Finsp, Sweden

ICAO - ESFINS, IATA -

Data provided by Airmate  

General information

Coordinates: N58°43'59" E15°36'10"
Elevation is 164 feet MSL.
Magnetic variation is 6° East
View others Airports in Östergötlands län

Operational data

Special qualification required
Current time UTC:
Current local time:
Weather at : ESSL - Linkoping/Saab ( 37 km )
METAR: ESSL 140050Z AUTO 11003KT 4500 FEW004/// SCT006/// OVC011/// 08/08 Q1001
TAF: TAF ESSL 132030Z 1321/1323 23008KT CAVOK
View NOTAMs / SUP AIP / TFR affecting this airport [VIEW]
Communications frequencies: [VIEW]

Runways:

RWY identifierQFULength (ft)Width (ft)SurfaceLDA (ft)
0226°301191GRAS
20206°00UNK

Airport contact information

Address: Finsp Sweden

Satellite view of ESFINS